createdAt,value
2023-03-11T00:00:18.606Z,98665.38
2023-03-11T00:02:46.170Z,98669.72
2023-03-11T00:05:16.399Z,98669.72
2023-03-11T00:07:42.906Z,98670.56
2023-03-11T00:10:13.527Z,98683.25
2023-03-11T00:12:40.106Z,98689.50
2023-03-11T00:15:06.704Z,98694.06
2023-03-11T00:17:33.120Z,98696.78
2023-03-11T00:19:59.564Z,98713.00
2023-03-11T00:22:25.981Z,98720.09
2023-03-11T00:24:52.466Z,98726.53
2023-03-11T00:27:18.880Z,98726.53
2023-03-11T00:29:45.448Z,98729.22
2023-03-11T00:32:12.226Z,98740.88
2023-03-11T00:34:47.264Z,98742.75
2023-03-11T00:37:13.750Z,98757.13
2023-03-11T00:39:40.288Z,98765.22
2023-03-11T00:42:07.774Z,98768.78
2023-03-11T00:44:34.170Z,98765.22
2023-03-11T00:47:00.563Z,98785.88
2023-03-11T00:49:27.077Z,98791.91
2023-03-11T00:51:53.563Z,98802.72
2023-03-11T00:54:19.993Z,98807.31
2023-03-11T00:56:46.468Z,98802.94
2023-03-11T00:59:13.028Z,98808.34
2023-03-11T01:01:39.569Z,98807.31
2023-03-11T01:04:06.232Z,98814.59
2023-03-11T01:06:44.474Z,98821.66
2023-03-11T01:09:11.788Z,98817.28
2023-03-11T01:11:38.289Z,98829.78
2023-03-11T01:14:04.762Z,98833.31
2023-03-11T01:16:31.148Z,98836.66
2023-03-11T01:18:57.615Z,98840.19
2023-03-11T01:21:24.053Z,98849.97
2023-03-11T01:23:50.492Z,98855.16
2023-03-11T01:26:16.970Z,98871.59
2023-03-11T01:28:43.524Z,98878.66
2023-03-11T01:31:10.544Z,98885.78
2023-03-11T01:33:36.981Z,98895.31
2023-03-11T01:36:03.892Z,98894.28
2023-03-11T01:38:30.366Z,98894.28
2023-03-11T01:40:56.848Z,98896.97
2023-03-11T01:43:55.867Z,98908.44
2023-03-11T01:46:25.397Z,98913.66
2023-03-11T01:48:58.919Z,98926.16
2023-03-11T01:51:31.445Z,98928.00
2023-03-11T01:53:59.411Z,98940.50
2023-03-11T01:56:25.823Z,98952.34
2023-03-11T01:58:53.942Z,98954.88
2023-03-11T02:01:21.271Z,98950.28
2023-03-11T02:03:47.880Z,98960.06
2023-03-11T02:06:15.955Z,98965.28
2023-03-11T02:08:43.750Z,98969.03
2023-03-11T02:11:12.177Z,98969.84
2023-03-11T02:13:40.768Z,98978.81
2023-03-11T02:16:07.747Z,98987.78
2023-03-11T02:18:34.220Z,98989.66
2023-03-11T02:21:00.566Z,99005.88
2023-03-11T02:23:30.608Z,99010.25
2023-03-11T02:25:57.017Z,99018.16
2023-03-11T02:28:24.154Z,99023.78
2023-03-11T02:30:50.741Z,99034.22
2023-03-11T02:33:18.693Z,99046.03
2023-03-11T02:35:45.115Z,99053.34
2023-03-11T02:38:11.625Z,99053.97
2023-03-11T02:40:41.648Z,99058.34
2023-03-11T02:43:10.542Z,99070.84
2023-03-11T02:45:39.976Z,99082.50
2023-03-11T02:48:07.396Z,99095.19
2023-03-11T02:50:37.019Z,99105.19
2023-03-11T02:53:04.507Z,99109.56
2023-03-11T02:55:31.039Z,99116.84
2023-03-11T02:57:57.569Z,99128.31
2023-03-11T03:00:24.962Z,99138.94
2023-03-11T03:02:52.383Z,99155.78
2023-03-11T03:05:20.694Z,99163.91
2023-03-11T03:07:48.087Z,99171.00
2023-03-11T03:10:15.779Z,99174.72
2023-03-11T03:12:42.583Z,99183.72
2023-03-11T03:15:09.238Z,99192.47
2023-03-11T03:17:35.748Z,99198.91
2023-03-11T03:20:03.069Z,99207.03
2023-03-11T03:22:30.081Z,99220.34
2023-03-11T03:24:56.449Z,99233.88
2023-03-11T03:27:22.845Z,99241.19
2023-03-11T03:29:49.373Z,99245.75
2023-03-11T03:32:15.799Z,99252.00
2023-03-11T03:34:42.269Z,99259.28
2023-03-11T03:37:08.707Z,99270.13
2023-03-11T03:39:35.144Z,99273.66
2023-03-11T03:42:01.626Z,99286.97
2023-03-11T03:44:28.096Z,99301.16
2023-03-11T03:46:54.508Z,99308.47
2023-03-11T03:49:20.916Z,99316.38
2023-03-11T03:51:47.292Z,99322.63
2023-03-11T03:54:14.894Z,99323.44
2023-03-11T03:56:41.423Z,99331.56
2023-03-11T03:59:07.798Z,99343.88
2023-03-11T04:01:34.206Z,99360.97
2023-03-11T04:04:00.627Z,99367.41
2023-03-11T04:06:27.440Z,99365.53
2023-03-11T04:08:54.552Z,99371.78
2023-03-11T04:11:21.226Z,99380.97
2023-03-11T04:13:48.023Z,99382.19
2023-03-11T04:16:21.845Z,99396.16
2023-03-11T04:18:48.751Z,99398.25
2023-03-11T04:21:15.207Z,99408.03
2023-03-11T04:23:41.597Z,99418.84
2023-03-11T04:26:08.152Z,99416.34
2023-03-11T04:28:34.623Z,99431.56
2023-03-11T04:31:01.055Z,99439.03
2023-03-11T04:33:27.566Z,99438.19
2023-03-11T04:35:54.031Z,99454.25
2023-03-11T04:38:20.448Z,99459.69
2023-03-11T04:40:46.855Z,99466.09
2023-03-11T04:43:13.256Z,99479.47
2023-03-11T04:45:40.220Z,99485.88
2023-03-11T04:48:06.650Z,99484.88
2023-03-11T04:50:33.088Z,99503.00
2023-03-11T04:52:59.677Z,99502.13
2023-03-11T04:55:26.176Z,99505.69
2023-03-11T04:57:52.613Z,99510.69
2023-03-11T05:00:22.996Z,99521.53
2023-03-11T05:02:49.425Z,99520.53
2023-03-11T05:05:16.560Z,99534.69
2023-03-11T05:07:42.956Z,99537.41
2023-03-11T05:10:09.828Z,99551.78
2023-03-11T05:12:42.000Z,99573.22
2023-03-11T05:15:08.652Z,99565.31
2023-03-11T05:17:37.267Z,99572.38
2023-03-11T05:20:07.433Z,99587.63
2023-03-11T05:22:37.525Z,99595.56
2023-03-11T05:25:10.450Z,99602.63
2023-03-11T05:27:36.867Z,99602.63
2023-03-11T05:30:03.836Z,99613.47
2023-03-11T05:32:30.244Z,99613.66
2023-03-11T05:34:56.717Z,99620.97
2023-03-11T05:37:23.157Z,99622.84
2023-03-11T05:39:49.554Z,99629.25
2023-03-11T05:42:15.980Z,99639.06
2023-03-11T05:44:42.491Z,99644.88
2023-03-11T05:47:08.930Z,99649.25
2023-03-11T05:49:35.505Z,99654.88
2023-03-11T05:52:01.930Z,99661.09
2023-03-11T05:54:28.333Z,99673.81
2023-03-11T05:56:55.899Z,99682.97
2023-03-11T05:59:22.580Z,99695.47
2023-03-11T06:01:48.977Z,99696.31
2023-03-11T06:04:15.486Z,99706.09
2023-03-11T06:06:42.129Z,99715.91
2023-03-11T06:09:13.357Z,99727.56
2023-03-11T06:11:39.830Z,99726.56
2023-03-11T06:14:06.475Z,99740.94
2023-03-11T06:16:32.961Z,99737.00
2023-03-11T06:19:02.549Z,99749.53
2023-03-11T06:21:29.018Z,99755.94
2023-03-11T06:23:55.458Z,99755.31
2023-03-11T06:26:23.249Z,99764.63
2023-03-11T06:28:50.381Z,99764.19
2023-03-11T06:31:21.865Z,99768.47
2023-03-11T06:33:48.869Z,99779.88
2023-03-11T06:36:16.604Z,99779.59
2023-03-11T06:38:43.340Z,99778.28
2023-03-11T06:41:10.335Z,99786.22
2023-03-11T06:43:36.881Z,99793.78
2023-03-11T06:46:08.683Z,99800.97
2023-03-11T06:48:35.141Z,99803.59
2023-03-11T06:51:01.674Z,99812.66
2023-03-11T06:53:29.198Z,99805.81
2023-03-11T06:55:59.781Z,99817.59
2023-03-11T06:58:26.227Z,99826.00
2023-03-11T07:00:52.844Z,99839.81
2023-03-11T07:03:19.400Z,99842.78
2023-03-11T07:05:45.923Z,99854.94
2023-03-11T07:08:12.403Z,99855.19
2023-03-11T07:10:38.846Z,99864.84
2023-03-11T07:13:05.317Z,99868.00
2023-03-11T07:15:31.764Z,99868.47
2023-03-11T07:17:58.315Z,99881.66
2023-03-11T07:20:24.846Z,99884.00
2023-03-11T07:22:51.348Z,99887.19
2023-03-11T07:25:17.934Z,99898.69
2023-03-11T07:27:44.552Z,99906.41
2023-03-11T07:30:11.362Z,99902.50
2023-03-11T07:32:37.855Z,99915.69
2023-03-11T07:35:04.560Z,99925.28
2023-03-11T07:37:31.057Z,99928.66
2023-03-11T07:39:57.501Z,99947.25
2023-03-11T07:42:23.884Z,99954.16
2023-03-11T07:44:51.483Z,99953.13
2023-03-11T07:47:18.262Z,99956.50
2023-03-11T07:49:44.749Z,99963.63
2023-03-11T07:52:11.147Z,99979.50
2023-03-11T07:54:37.615Z,99978.47
2023-03-11T07:57:04.023Z,99991.84
2023-03-11T07:59:30.569Z,99982.50
2023-03-11T08:01:57.149Z,99998.56
2023-03-11T08:04:23.561Z,99991.09
2023-03-11T08:06:50.103Z,99996.53
2023-03-11T08:09:16.552Z,100002.59
2023-03-11T08:11:43.039Z,100013.25
2023-03-11T08:14:09.899Z,100017.66
2023-03-11T08:16:36.422Z,100034.56
2023-03-11T08:19:02.933Z,100029.81
2023-03-11T08:21:31.936Z,100042.34
2023-03-11T08:23:59.293Z,100048.44
2023-03-11T08:26:26.214Z,100037.38
2023-03-11T08:28:52.678Z,100040.91
2023-03-11T08:31:24.198Z,100053.28
2023-03-11T08:33:51.628Z,100061.22
2023-03-11T08:36:18.729Z,100063.72
2023-03-11T08:38:45.157Z,100063.56
2023-03-11T08:41:11.745Z,100066.06
2023-03-11T08:43:38.287Z,100077.59
2023-03-11T08:46:06.785Z,100075.53
2023-03-11T08:48:33.832Z,100083.50
2023-03-11T08:51:00.328Z,100095.81
2023-03-11T08:53:26.776Z,100097.34
2023-03-11T08:55:53.290Z,100105.47
2023-03-11T08:58:20.272Z,100115.09
2023-03-11T09:00:46.742Z,100124.94
2023-03-11T09:03:13.719Z,100125.56
2023-03-11T09:05:40.264Z,100136.22
2023-03-11T09:08:06.792Z,100133.53
2023-03-11T09:10:33.267Z,100141.50
2023-03-11T09:12:59.656Z,100137.75
2023-03-11T09:15:26.051Z,100146.72
2023-03-11T09:17:53.130Z,100153.00
2023-03-11T09:20:19.811Z,100160.97
2023-03-11T09:22:46.239Z,100172.47
2023-03-11T09:25:14.987Z,100170.59
2023-03-11T09:27:41.622Z,100184.16
2023-03-11T09:30:09.164Z,100183.16
2023-03-11T09:32:35.608Z,100182.97
2023-03-11T09:35:02.061Z,100179.91
2023-03-11T09:37:30.267Z,100185.31
2023-03-11T09:39:56.689Z,100188.03
2023-03-11T09:42:29.316Z,100196.81
2023-03-11T09:45:11.270Z,100202.94
2023-03-11T09:47:47.098Z,100209.19
2023-03-11T09:50:22.848Z,100201.88
2023-03-11T09:52:53.499Z,100206.28
2023-03-11T09:55:32.229Z,100216.94
2023-03-11T09:58:00.508Z,100217.81
2023-03-11T10:00:26.976Z,100223.88
2023-03-11T10:02:53.803Z,100223.69
2023-03-11T10:05:25.812Z,100228.09
2023-03-11T10:08:02.582Z,100223.50
2023-03-11T10:10:31.037Z,100237.72
2023-03-11T10:12:57.413Z,100235.00
2023-03-11T10:15:41.764Z,100238.41
2023-03-11T10:18:23.420Z,100262.84
2023-03-11T10:21:08.922Z,100258.88
2023-03-11T10:23:47.986Z,100257.22
2023-03-11T10:26:26.231Z,100258.88
2023-03-11T10:28:56.214Z,100261.59
2023-03-11T10:31:27.714Z,100264.16
2023-03-11T10:33:59.642Z,100266.66
2023-03-11T10:36:29.652Z,100269.38
2023-03-11T10:38:56.389Z,100276.31
2023-03-11T10:41:22.751Z,100282.59
2023-03-11T10:43:54.596Z,100278.84
2023-03-11T10:46:24.355Z,100288.66
2023-03-11T10:48:50.813Z,100296.81
2023-03-11T10:51:22.750Z,100287.66
2023-03-11T10:53:50.864Z,100288.31
2023-03-11T10:56:28.475Z,100290.19
2023-03-11T10:58:55.162Z,100291.84
2023-03-11T11:01:22.074Z,100291.84
2023-03-11T11:03:50.333Z,100302.56
2023-03-11T11:06:26.522Z,100302.72
2023-03-11T11:09:11.764Z,100309.81
2023-03-11T11:11:39.546Z,100310.69
2023-03-11T11:14:06.067Z,100307.13
2023-03-11T11:16:34.451Z,100303.56
2023-03-11T11:19:00.913Z,100316.97
2023-03-11T11:21:38.275Z,100314.25
2023-03-11T11:24:16.940Z,100301.50
2023-03-11T11:27:02.387Z,100308.81
2023-03-11T11:29:28.813Z,100307.97
2023-03-11T11:32:10.179Z,100309.66
2023-03-11T11:34:36.683Z,100320.31
2023-03-11T11:37:04.731Z,100318.66
2023-03-11T11:39:36.307Z,100323.03
2023-03-11T11:42:03.098Z,100315.72
2023-03-11T11:44:33.941Z,100325.75
2023-03-11T11:47:18.496Z,100322.19
2023-03-11T11:49:50.684Z,100324.91
2023-03-11T11:52:45.112Z,100331.03
2023-03-11T11:55:17.841Z,100332.88
2023-03-11T11:57:44.311Z,100328.31
2023-03-11T12:00:31.165Z,100329.16
2023-03-11T12:03:16.445Z,100324.56
2023-03-11T12:05:52.766Z,100334.38
2023-03-11T12:08:30.774Z,100333.34
2023-03-11T12:10:57.147Z,100339.63
2023-03-11T12:13:35.718Z,100341.31
2023-03-11T12:16:05.290Z,100345.91
2023-03-11T12:18:35.547Z,100353.88
2023-03-11T12:21:08.359Z,100351.16
2023-03-11T12:23:37.548Z,100340.28
2023-03-11T12:26:27.746Z,100346.56
2023-03-11T12:28:54.343Z,100357.22
2023-03-11T12:31:21.590Z,100356.38
2023-03-11T12:33:55.865Z,100348.44
2023-03-11T12:36:39.564Z,100354.72
2023-03-11T12:39:07.663Z,100361.19
2023-03-11T12:41:42.793Z,100362.03
2023-03-11T12:44:21.680Z,100366.63
2023-03-11T12:46:54.504Z,100367.66
2023-03-11T12:49:25.210Z,100368.50
2023-03-11T12:52:01.037Z,100372.22
2023-03-11T12:54:31.994Z,100377.66
2023-03-11T12:57:02.990Z,100370.38
2023-03-11T12:59:41.804Z,100374.09
2023-03-11T13:02:27.023Z,100373.09
2023-03-11T13:05:05.170Z,100374.09
2023-03-11T13:07:41.891Z,100374.09
2023-03-11T13:10:08.296Z,100378.69
2023-03-11T13:12:45.364Z,100386.66
2023-03-11T13:15:35.391Z,100382.06
2023-03-11T13:18:25.038Z,100387.50
2023-03-11T13:20:56.049Z,100392.09
2023-03-11T13:23:22.496Z,100399.22
2023-03-11T13:25:51.931Z,100403.81
2023-03-11T13:28:37.216Z,100395.66
2023-03-11T13:31:22.629Z,100403.81
2023-03-11T13:33:51.355Z,100413.63
2023-03-11T13:36:36.539Z,100419.91
2023-03-11T13:39:07.832Z,100414.47
2023-03-11T13:41:36.043Z,100420.94
2023-03-11T13:44:11.565Z,100428.06
2023-03-11T13:46:40.151Z,100446.03
2023-03-11T13:49:09.319Z,100429.75
2023-03-11T13:51:41.039Z,100444.34
2023-03-11T13:54:20.053Z,100439.56
2023-03-11T13:56:49.260Z,100438.72
2023-03-11T13:59:23.701Z,100432.47
2023-03-11T14:01:54.985Z,100441.44
2023-03-11T14:04:29.762Z,100448.75
2023-03-11T14:06:56.247Z,100447.72
2023-03-11T14:09:24.116Z,100447.06
2023-03-11T14:11:52.516Z,100456.91
2023-03-11T14:14:30.252Z,100460.66
2023-03-11T14:16:57.293Z,100466.09
2023-03-11T14:19:23.816Z,100465.06
2023-03-11T14:21:55.297Z,100463.38
2023-03-11T14:24:31.111Z,100464.41
2023-03-11T14:26:59.252Z,100468.81
2023-03-11T14:29:34.847Z,100470.00
2023-03-11T14:32:15.343Z,100476.13
2023-03-11T14:34:41.774Z,100473.41
2023-03-11T14:37:23.412Z,100478.00
2023-03-11T14:39:53.410Z,100495.13
2023-03-11T14:42:39.989Z,100495.13
2023-03-11T14:45:16.250Z,100499.72
2023-03-11T14:47:42.673Z,100502.44
2023-03-11T14:50:28.246Z,100506.00
2023-03-11T14:53:04.884Z,100513.31
2023-03-11T14:55:43.099Z,100516.69
2023-03-11T14:58:12.321Z,100509.56
2023-03-11T15:00:42.035Z,100516.69
2023-03-11T15:03:12.737Z,100513.31
2023-03-11T15:05:57.862Z,100511.44
2023-03-11T15:08:27.039Z,100510.59
2023-03-11T15:11:07.309Z,100505.16
2023-03-11T15:13:34.093Z,100513.31
2023-03-11T15:16:02.290Z,100513.47
2023-03-11T15:18:32.104Z,100506.00
2023-03-11T15:21:02.948Z,100507.88
2023-03-11T15:23:29.497Z,100514.34
2023-03-11T15:25:55.920Z,100521.63
2023-03-11T15:28:27.991Z,100518.91
2023-03-11T15:31:12.973Z,100519.78
2023-03-11T15:33:39.997Z,100527.94
2023-03-11T15:36:06.581Z,100522.50
2023-03-11T15:38:33.047Z,100519.94
2023-03-11T15:41:03.815Z,100533.34
2023-03-11T15:43:34.093Z,100532.50
2023-03-11T15:46:02.204Z,100530.81
2023-03-11T15:48:29.956Z,100533.34
2023-03-11T15:50:57.760Z,100539.63
2023-03-11T15:53:25.267Z,100529.97
2023-03-11T15:55:52.335Z,100539.81
2023-03-11T15:58:20.414Z,100537.91
2023-03-11T16:00:51.865Z,100542.72
2023-03-11T16:03:19.165Z,100537.28
2023-03-11T16:05:45.824Z,100539.81
2023-03-11T16:08:12.341Z,100547.09
2023-03-11T16:10:39.429Z,100547.09
2023-03-11T16:13:06.202Z,100551.50
2023-03-11T16:15:35.185Z,100557.13
2023-03-11T16:18:02.719Z,100561.53
2023-03-11T16:20:33.492Z,100575.13
2023-03-11T16:23:01.568Z,100582.41
2023-03-11T16:25:30.713Z,100589.72
2023-03-11T16:27:57.618Z,100583.25
2023-03-11T16:30:24.887Z,100591.41
2023-03-11T16:32:51.345Z,100593.28
2023-03-11T16:35:18.532Z,100594.31
2023-03-11T16:37:47.635Z,100606.88
2023-03-11T16:40:16.015Z,100611.47
2023-03-11T16:42:43.686Z,100611.47
2023-03-11T16:45:14.272Z,100610.63
2023-03-11T16:47:40.997Z,100608.75
2023-03-11T16:50:07.994Z,100611.47
2023-03-11T16:52:34.572Z,100616.06
2023-03-11T16:55:01.089Z,100624.00
2023-03-11T16:57:27.546Z,100630.47
2023-03-11T16:59:53.949Z,100630.47
2023-03-11T17:02:21.102Z,100623.34
2023-03-11T17:04:48.578Z,100628.78
2023-03-11T17:07:15.087Z,100638.63
2023-03-11T17:09:41.577Z,100638.63
2023-03-11T17:12:08.440Z,100641.34
2023-03-11T17:14:35.839Z,100647.63
2023-03-11T17:17:02.328Z,100644.06
2023-03-11T17:19:30.668Z,100642.38
2023-03-11T17:21:57.661Z,100644.06
2023-03-11T17:24:24.063Z,100646.78
2023-03-11T17:26:50.477Z,100641.34
2023-03-11T17:29:19.233Z,100639.66
2023-03-11T17:31:45.750Z,100637.78
2023-03-11T17:34:12.247Z,100641.53
2023-03-11T17:36:38.708Z,100644.25
2023-03-11T17:39:05.092Z,100629.81
2023-03-11T17:41:31.645Z,100645.94
2023-03-11T17:43:58.081Z,100651.38
2023-03-11T17:46:24.674Z,100648.66
2023-03-11T17:48:52.083Z,100649.69
2023-03-11T17:51:19.969Z,100648.84
2023-03-11T17:53:47.055Z,100647.81
2023-03-11T17:56:14.632Z,100647.81
2023-03-11T17:58:41.113Z,100629.63
2023-03-11T18:01:09.200Z,100646.97
2023-03-11T18:03:35.738Z,100644.25
2023-03-11T18:06:04.065Z,100651.38
2023-03-11T18:08:30.884Z,100652.41
2023-03-11T18:11:02.046Z,100660.56
2023-03-11T18:13:28.971Z,100659.72
2023-03-11T18:16:02.863Z,100661.41
2023-03-11T18:18:30.376Z,100657.84
2023-03-11T18:21:23.287Z,100664.94
2023-03-11T18:23:52.151Z,100664.09
2023-03-11T18:26:18.858Z,100670.38
2023-03-11T18:28:45.722Z,100672.25
2023-03-11T18:31:16.912Z,100673.09
2023-03-11T18:33:47.355Z,100670.38
2023-03-11T18:36:15.607Z,100670.38
2023-03-11T18:38:42.312Z,100672.25
2023-03-11T18:41:08.915Z,100665.78
2023-03-11T18:43:35.414Z,100671.22
2023-03-11T18:46:01.953Z,100666.81
2023-03-11T18:48:28.404Z,100655.97
2023-03-11T18:50:55.564Z,100657.66
2023-03-11T18:53:24.877Z,100664.94
2023-03-11T18:55:52.335Z,100657.66
2023-03-11T18:58:19.336Z,100661.19
2023-03-11T19:00:45.965Z,100653.25
2023-03-11T19:03:12.633Z,100664.09
2023-03-11T19:05:39.003Z,100658.69
2023-03-11T19:08:05.614Z,100670.38
2023-03-11T19:10:32.130Z,100668.50
2023-03-11T19:12:58.568Z,100667.47
2023-03-11T19:15:25.022Z,100668.50
2023-03-11T19:18:04.349Z,100663.06
2023-03-11T19:20:33.065Z,100663.06
2023-03-11T19:22:59.510Z,100661.41
2023-03-11T19:25:27.884Z,100667.66
2023-03-11T19:27:55.013Z,100658.69
2023-03-11T19:30:21.835Z,100661.41
2023-03-11T19:32:52.569Z,100666.81
2023-03-11T19:35:20.959Z,100672.06
2023-03-11T19:37:48.005Z,100675.81
2023-03-11T19:40:15.229Z,100669.34
2023-03-11T19:42:41.764Z,100670.19
2023-03-11T19:45:08.501Z,100674.78
2023-03-11T19:47:34.957Z,100679.38
2023-03-11T19:50:01.495Z,100680.22
2023-03-11T19:52:27.902Z,100680.22
2023-03-11T19:54:54.291Z,100685.66
2023-03-11T19:57:20.843Z,100677.50
2023-03-11T19:59:47.256Z,100674.78
2023-03-11T20:02:13.937Z,100681.06
2023-03-11T20:04:43.054Z,100684.63
2023-03-11T20:07:09.797Z,100681.06
2023-03-11T20:09:36.303Z,100682.78
2023-03-11T20:12:02.788Z,100685.66
2023-03-11T20:14:29.382Z,100685.50
2023-03-11T20:16:55.878Z,100684.81
2023-03-11T20:19:22.479Z,100689.22
2023-03-11T20:21:50.520Z,100688.22
2023-03-11T20:24:17.062Z,100687.34
2023-03-11T20:26:43.585Z,100689.91
2023-03-11T20:29:10.140Z,100681.91
2023-03-11T20:31:37.163Z,100691.78
2023-03-11T20:34:03.842Z,100692.78
2023-03-11T20:36:32.724Z,100691.78
2023-03-11T20:38:59.337Z,100697.19
2023-03-11T20:44:16.445Z,100694.47
2023-03-11T20:46:45.461Z,100683.63
2023-03-11T20:49:12.117Z,100698.88
2023-03-11T20:51:41.378Z,100690.72
2023-03-11T20:54:08.404Z,100695.97
2023-03-11T20:56:37.726Z,100691.56
2023-03-11T20:59:07.062Z,100680.91
2023-03-11T21:01:35.008Z,100693.25
2023-03-11T21:04:05.684Z,100685.31
2023-03-11T21:06:33.822Z,100692.59
2023-03-11T21:09:01.700Z,100693.44
2023-03-11T21:11:28.718Z,100698.03
2023-03-11T21:13:55.530Z,100696.16
2023-03-11T21:16:22.169Z,100691.78
2023-03-11T21:18:49.624Z,100694.28
2023-03-11T21:21:17.245Z,100698.88
2023-03-11T21:23:44.039Z,100697.00
2023-03-11T21:26:14.598Z,100693.25
2023-03-11T21:28:42.305Z,100690.72
2023-03-11T21:31:19.644Z,100693.44
2023-03-11T21:33:46.605Z,100691.56
2023-03-11T21:36:13.793Z,100688.03
2023-03-11T21:38:40.717Z,100691.56
2023-03-11T21:41:12.924Z,100689.91
2023-03-11T21:43:41.871Z,100698.69
2023-03-11T21:46:22.191Z,100695.97
2023-03-11T21:48:49.002Z,100692.22
2023-03-11T21:51:16.516Z,100690.72
2023-03-11T21:53:43.191Z,100685.94
2023-03-11T21:56:10.028Z,100688.66
2023-03-11T21:58:37.132Z,100683.25
2023-03-11T22:01:03.867Z,100677.16
2023-03-11T22:03:31.158Z,100672.38
2023-03-11T22:05:58.796Z,100677.81
2023-03-11T22:08:25.445Z,100667.78
2023-03-11T22:10:51.983Z,100682.25
2023-03-11T22:13:18.776Z,100684.06
2023-03-11T22:15:45.442Z,100685.78
2023-03-11T22:18:12.132Z,100680.53
2023-03-11T22:20:42.276Z,100672.56
2023-03-11T22:23:09.536Z,100668.66
2023-03-11T22:25:36.009Z,100677.81
2023-03-11T22:28:02.531Z,100675.94
2023-03-11T22:30:32.000Z,100682.25
2023-03-11T22:32:58.437Z,100678.66
2023-03-11T22:35:25.189Z,100677.81
2023-03-11T22:37:51.587Z,100685.78
2023-03-11T22:40:18.028Z,100681.22
2023-03-11T22:42:44.481Z,100688.50
2023-03-11T22:45:11.205Z,100683.06
2023-03-11T22:47:37.610Z,100685.78
2023-03-11T22:50:04.145Z,100687.66
2023-03-11T22:52:30.680Z,100674.94
2023-03-11T22:54:57.297Z,100695.63
2023-03-11T22:57:23.855Z,100687.47
2023-03-11T22:59:50.286Z,100692.91
2023-03-11T23:02:16.678Z,100691.38
2023-03-11T23:04:46.223Z,100688.38
2023-03-11T23:07:12.683Z,100697.06
2023-03-11T23:09:39.258Z,100691.13
2023-03-11T23:12:06.953Z,100678.09
2023-03-11T23:14:44.558Z,100683.88
2023-03-11T23:17:11.561Z,100685.25
2023-03-11T23:19:38.159Z,100688.31
2023-03-11T23:22:04.648Z,100692.22
2023-03-11T23:24:31.097Z,100682.94
2023-03-11T23:26:57.552Z,100685.81
2023-03-11T23:29:24.044Z,100685.31
2023-03-11T23:31:50.447Z,100691.94
2023-03-11T23:34:16.912Z,100680.75
2023-03-11T23:36:43.324Z,100695.19
2023-03-11T23:39:09.740Z,100694.66
2023-03-11T23:41:37.873Z,100700.28
2023-03-11T23:44:04.695Z,100692.47
2023-03-11T23:46:31.394Z,100699.78
2023-03-11T23:48:58.010Z,100697.06
2023-03-11T23:51:24.492Z,100698.25
2023-03-11T23:53:50.871Z,100697.59
2023-03-11T23:56:18.089Z,100699.44
2023-03-11T23:58:44.623Z,100705.22
